Time;durP1;ratioP1;P1;durP2;ratioP2;P2;SDS_P1;SDS_P2;PMS_P1;PMS_P2;Temp;Humidity;BMP_temperature;BMP_pressure;BME280_temperature;BME280_humidity;BME280_pressure;Samples;Min_cycle;Max_cycle;Signal;HPM_P1;HPM_P2
2022/02/03 00:01:40;;;;;;;;;2.00;1.00;;;;;20.84;35.72;101879.97;5078922;27;45427;-56
2022/02/03 00:04:12;;;;;;;;;2.00;1.25;;;;;20.84;35.97;101882.59;5078612;27;46550;-57
2022/02/03 00:06:51;;;;;;;;;2.00;2.00;;;;;20.82;36.29;101869.50;5078578;27;45189;-57
2022/02/03 00:25:17;;;;;;;;;2.25;2.25;;;;;20.80;35.73;101854.66;5077943;27;45370;-56
2022/02/03 00:30:14;;;;;;;;;0.25;0.25;;;;;20.73;36.07;101851.38;5078383;27;45294;-58
2022/02/03 00:48:41;;;;;;;;;2.00;2.00;;;;;20.73;35.67;101843.47;5077739;28;45700;-62
2022/02/03 00:51:06;;;;;;;;;1.25;1.25;;;;;20.74;35.78;101841.69;5078080;27;45322;-58
2022/02/03 00:53:34;;;;;;;;;2.00;2.00;;;;;20.73;36.22;101842.63;5078131;28;45596;-58
2022/02/03 00:56:07;;;;;;;;;1.00;1.00;;;;;20.70;35.62;101833.06;5077506;27;46580;-58
2022/02/03 00:58:37;;;;;;;;;3.00;2.50;;;;;20.72;35.62;101836.50;5077740;27;45756;-58
2022/02/03 01:01:03;;;;;;;;;1.00;1.00;;;;;20.72;35.66;101838.25;5077794;27;45228;-56
2022/02/03 01:03:30;;;;;;;;;2.00;1.50;;;;;20.70;35.83;101833.06;5077918;28;45509;-57
2022/02/03 01:06:00;;;;;;;;;1.00;1.00;;;;;20.71;36.20;101832.16;5077254;27;45843;-57
2022/02/03 01:08:27;;;;;;;;;1.50;1.00;;;;;20.70;36.21;101839.19;5077491;27;45826;-57
2022/02/03 01:11:08;;;;;;;;;0.75;0.75;;;;;20.70;35.76;101843.59;5077703;27;45333;-57
2022/02/03 01:16:14;;;;;;;;;0.50;0.50;;;;;20.69;35.83;101836.63;5077390;27;46962;-58
2022/02/03 01:48:22;;;;;;;;;1.50;1.00;;;;;20.63;35.96;101821.91;5076621;27;46225;-58
2022/02/03 01:53:34;;;;;;;;;2.00;1.00;;;;;20.62;36.13;101824.59;5076761;27;45354;-58
2022/02/03 01:56:11;;;;;;;;;1.00;1.00;;;;;20.62;36.06;101827.22;5077004;27;45571;-56
2022/02/03 01:58:45;;;;;;;;;2.00;2.00;;;;;20.62;36.01;101828.09;5076745;27;45483;-57
2022/02/03 02:01:31;;;;;;;;;1.00;1.00;;;;;20.61;35.95;101818.47;5076851;27;45698;-58
2022/02/03 02:04:21;;;;;;;;;2.00;1.00;;;;;20.61;36.01;101823.75;5076932;27;45390;-55
2022/02/03 02:07:02;;;;;;;;;1.75;0.00;;;;;20.59;36.06;101820.31;5076999;28;45314;-56
2022/02/03 02:09:50;;;;;;;;;1.00;1.00;;;;;20.60;36.23;101815.91;5076377;27;45461;-56
2022/02/03 02:12:58;;;;;;;;;0.00;0.00;;;;;20.59;35.81;101815.03;5076590;27;45699;-55
2022/02/03 02:15:53;;;;;;;;;1.00;1.00;;;;;20.58;36.07;101810.69;5076580;27;45389;-55
2022/02/03 02:37:55;;;;;;;;;1.00;1.00;;;;;20.53;35.59;101757.38;5076426;28;45414;-57
2022/02/03 02:43:28;;;;;;;;;1.75;1.00;;;;;20.54;35.99;101745.91;5076266;27;45383;-56
2022/02/03 02:46:11;;;;;;;;;1.00;1.00;;;;;20.52;35.75;101730.16;5079505;27;45780;-57
2022/02/03 02:49:10;;;;;;;;;0.25;0.25;;;;;20.52;35.52;101717.00;5079970;27;45256;-56
2022/02/03 02:51:59;;;;;;;;;1.25;1.25;;;;;20.52;36.25;101709.09;5080022;28;45209;-58
2022/02/03 03:31:29;;;;;;;;;0.75;0.75;;;;;20.46;35.71;101613.69;5078836;27;45235;-56
2022/02/03 03:34:09;;;;;;;;;0.00;0.00;;;;;20.46;35.48;101608.41;5079062;27;45350;-57
2022/02/03 03:36:38;;;;;;;;;1.75;1.75;;;;;20.45;35.88;101606.75;5079149;27;45376;-56
2022/02/03 03:39:04;;;;;;;;;1.00;1.00;;;;;20.45;35.80;101601.47;5077574;27;47572;-56
2022/02/03 03:41:34;;;;;;;;;2.00;0.25;;;;;20.46;35.96;101608.41;5078770;27;45390;-57
2022/02/03 03:44:03;;;;;;;;;1.25;1.00;;;;;20.45;35.76;101606.75;5078387;27;45330;-57
2022/02/03 03:46:37;;;;;;;;;0.00;0.00;;;;;20.45;35.69;101598.84;5079109;27;45538;-57
2022/02/03 03:49:35;;;;;;;;;2.00;1.00;;;;;20.45;35.54;101607.56;5077390;27;47330;-59
2022/02/03 03:52:02;;;;;;;;;1.00;1.00;;;;;20.43;35.67;101593.63;5078931;27;45838;-59
2022/02/03 03:57:19;;;;;;;;;1.00;1.00;;;;;20.44;35.52;101581.31;5078847;27;45279;-58
2022/02/03 04:51:34;;;;;;;;;1.00;1.00;;;;;20.37;35.64;101530.72;5077805;28;45433;-57
2022/02/03 05:03:20;;;;;;;;;1.00;1.00;;;;;20.34;35.48;101510.63;5077717;28;45255;-60
2022/02/03 05:06:35;;;;;;;;;0.75;0.75;;;;;20.35;35.76;101508.84;5077680;27;45222;-60
2022/02/03 05:17:30;;;;;;;;;2.00;2.00;;;;;20.33;35.32;101505.44;5077495;28;45373;-61
2022/02/03 05:44:50;;;;;;;;;2.25;2.25;;;;;19.65;34.18;101489.84;5076776;27;45767;-58
2022/02/03 06:08:53;;;;;;;;;4.00;4.00;;;;;19.27;33.60;101475.56;5076316;28;45365;-57
2022/02/03 06:14:04;;;;;;;;;3.00;2.00;;;;;19.31;34.29;101463.16;5076663;27;45875;-57
2022/02/03 06:29:03;;;;;;;;;2.25;2.25;;;;;19.52;34.40;101432.50;5079722;28;45817;-57
2022/02/03 06:31:29;;;;;;;;;2.00;2.00;;;;;19.55;34.19;101431.53;5080079;28;45364;-57
2022/02/03 06:33:55;;;;;;;;;1.50;1.50;;;;;19.55;33.98;101418.38;5080296;27;45355;-58
2022/02/03 06:36:20;;;;;;;;;2.00;2.00;;;;;19.58;34.39;101412.97;5079466;27;46834;-58
2022/02/03 06:38:46;;;;;;;;;2.00;2.00;;;;;19.60;34.36;101404.13;5079501;28;45263;-58
2022/02/03 06:41:11;;;;;;;;;2.75;2.75;;;;;19.62;34.38;101402.25;5079740;27;45415;-57
2022/02/03 06:43:37;;;;;;;;;2.00;2.00;;;;;19.65;34.31;101405.69;5079846;28;45716;-57
2022/02/03 06:46:07;;;;;;;;;1.00;1.00;;;;;19.67;34.11;101410.00;5079390;27;46915;-58
2022/02/03 06:48:34;;;;;;;;;3.75;2.00;;;;;19.67;34.70;101404.72;5079131;27;45440;-54
2022/02/03 06:51:08;;;;;;;;;3.00;1.75;;;;;19.70;34.21;101404.56;5079508;27;45420;-57
2022/02/03 06:53:38;;;;;;;;;2.00;2.00;;;;;19.69;34.27;101394.97;5079474;27;45427;-57
2022/02/03 06:56:10;;;;;;;;;1.00;1.00;;;;;19.72;34.39;101397.47;5079304;27;47354;-57
2022/02/03 06:58:46;;;;;;;;;2.00;2.00;;;;;19.73;34.55;101408.88;5079462;27;45752;-57
2022/02/03 07:01:18;;;;;;;;;1.00;1.00;;;;;19.73;34.11;101411.50;5079416;27;45240;-57
2022/02/03 07:03:52;;;;;;;;;6.00;3.25;;;;;19.73;34.19;101399.19;5079370;27;45359;-58
2022/02/03 07:06:18;;;;;;;;;2.50;2.50;;;;;19.75;34.51;101401.75;5079355;27;46083;-57
2022/02/03 07:08:45;;;;;;;;;2.00;2.00;;;;;19.76;34.19;101406.97;5079401;27;45454;-56
2022/02/03 07:11:11;;;;;;;;;3.00;3.00;;;;;19.76;34.60;101417.47;5079191;27;45342;-56
2022/02/03 07:13:36;;;;;;;;;3.00;2.00;;;;;19.76;34.49;101409.59;5078387;28;45401;-57
2022/02/03 07:16:03;;;;;;;;;3.00;2.75;;;;;19.77;34.56;101413.94;5078032;28;46258;-55
2022/02/03 07:18:28;;;;;;;;;2.50;2.00;;;;;19.77;34.20;101406.03;5078512;27;45219;-56
2022/02/03 07:20:54;;;;;;;;;2.50;2.00;;;;;19.77;34.24;101408.66;5078594;27;45405;-57
2022/02/03 07:23:19;;;;;;;;;2.50;2.50;;;;;19.79;34.23;101413.84;5078373;27;45573;-57
2022/02/03 07:25:45;;;;;;;;;3.25;3.25;;;;;19.78;34.49;101420.91;5077827;28;46607;-58
2022/02/03 07:28:12;;;;;;;;;2.00;2.00;;;;;19.79;34.66;101421.75;5077815;28;45475;-58
2022/02/03 07:30:39;;;;;;;;;1.25;1.25;;;;;19.81;34.61;101421.66;5077475;27;45373;-57
2022/02/03 07:33:06;;;;;;;;;2.50;2.25;;;;;19.80;34.82;101431.34;5078181;27;45540;-57
2022/02/03 07:35:34;;;;;;;;;3.00;3.00;;;;;19.81;34.61;101421.66;5077552;28;46206;-57
2022/02/03 07:38:01;;;;;;;;;2.75;2.00;;;;;19.83;34.73;101422.47;5078120;28;45840;-58
2022/02/03 07:40:27;;;;;;;;;1.75;1.75;;;;;19.82;34.24;101420.75;5077988;27;45353;-57
2022/02/03 07:42:54;;;;;;;;;2.00;2.00;;;;;19.82;34.30;101420.75;5078049;27;45636;-56
2022/02/03 07:45:20;;;;;;;;;2.25;2.25;;;;;19.81;34.90;101419.03;5077379;28;45460;-57
2022/02/03 07:47:48;;;;;;;;;3.00;2.25;;;;;19.83;34.51;101425.09;5076316;27;45652;-57
2022/02/03 07:50:15;;;;;;;;;2.50;2.50;;;;;19.83;34.38;101414.56;5077602;27;45240;-57
2022/02/03 07:52:40;;;;;;;;;1.25;1.25;;;;;19.81;34.89;101416.41;5093374;27;45264;-53
2022/02/03 07:55:06;;;;;;;;;3.00;3.00;;;;;19.82;34.41;101419.00;5077266;27;46387;-56
2022/02/03 07:57:32;;;;;;;;;3.00;3.00;;;;;19.85;34.86;101428.50;5075688;27;45541;-56
2022/02/03 07:59:58;;;;;;;;;2.50;2.00;;;;;19.84;34.41;101413.66;5077775;27;45431;-57
2022/02/03 08:02:23;;;;;;;;;2.75;2.75;;;;;19.84;34.36;101405.75;5077435;27;45335;-59
2022/02/03 08:04:50;;;;;;;;;2.00;2.00;;;;;19.84;34.41;101419.78;5076956;27;46175;-57
2022/02/03 08:07:18;;;;;;;;;2.00;2.00;;;;;19.85;35.06;101407.47;5076957;27;45830;-54
2022/02/03 08:12:10;;;;;;;;;2.00;2.00;;;;;19.86;34.49;101414.47;5037610;27;1140157;-58
2022/02/03 08:14:41;;;;;;;;;3.75;2.25;;;;;19.85;34.49;101418.84;5078133;28;47056;-57
2022/02/03 08:17:15;;;;;;;;;2.25;2.25;;;;;19.85;34.53;101415.38;5078252;27;45352;-57
2022/02/03 08:20:05;;;;;;;;;2.00;2.00;;;;;19.83;34.73;101417.19;5078308;28;45301;-54
2022/02/03 08:22:32;;;;;;;;;3.00;1.25;;;;;19.84;34.93;101421.53;5078044;27;45300;-53
2022/02/03 08:25:14;;;;;;;;;2.00;2.00;;;;;19.83;35.16;101415.44;5078518;27;46494;-58
2022/02/03 08:28:36;;;;;;;;;2.00;1.25;;;;;19.84;34.72;101419.78;5077964;27;45837;-56
2022/02/03 08:32:59;;;;;;;;;4.00;2.75;;;;;19.85;35.19;101425.88;5078404;27;45351;-51
2022/02/03 08:35:37;;;;;;;;;3.50;3.25;;;;;19.87;35.56;101421.44;5077819;27;45472;-56
2022/02/03 08:40:56;;;;;;;;;2.25;2.25;;;;;19.87;35.52;101421.44;5077906;27;45432;-54
2022/02/03 08:43:23;;;;;;;;;2.50;2.50;;;;;19.86;35.54;101414.47;5077336;27;45287;-57
2022/02/03 08:45:49;;;;;;;;;3.00;3.00;;;;;19.87;36.09;101405.66;5077654;27;46029;-53
2022/02/03 08:48:15;;;;;;;;;2.50;2.50;;;;;19.84;36.26;101401.38;5077711;27;45353;-55
2022/02/03 08:50:41;;;;;;;;;3.75;2.75;;;;;19.88;36.06;101399.50;5076122;27;45430;-56
2022/02/03 08:53:13;;;;;;;;;3.75;3.00;;;;;19.89;36.34;101393.31;5077938;27;45434;-56
2022/02/03 09:59:19;;;;;;;;;4.25;3.00;;;;;20.03;36.92;101358.50;5056044;28;45372;-52
2022/02/03 10:02:04;;;;;;;;;3.00;3.00;;;;;20.03;36.89;101340.06;5055794;28;45401;-55
2022/02/03 10:04:50;;;;;;;;;4.00;4.00;;;;;20.04;37.15;101339.16;5056340;28;45758;-55
2022/02/03 10:07:21;;;;;;;;;3.00;3.00;;;;;20.04;37.19;101328.63;5056307;28;45323;-56
2022/02/03 10:09:49;;;;;;;;;3.00;3.00;;;;;20.05;37.06;101340.84;5055750;28;46312;-55
2022/02/03 10:12:17;;;;;;;;;3.75;3.50;;;;;20.06;37.11;101339.94;5055797;28;45426;-56
2022/02/03 10:14:46;;;;;;;;;3.50;2.75;;;;;20.04;36.85;101340.00;5071887;27;45327;-55
2022/02/03 10:17:13;;;;;;;;;3.75;3.75;;;;;20.04;37.08;101344.41;5056388;28;45335;-57
2022/02/03 10:19:42;;;;;;;;;2.00;2.00;;;;;20.05;36.46;101356.66;5055751;28;46492;-54
2022/02/03 10:22:12;;;;;;;;;2.00;2.00;;;;;20.03;36.81;101356.69;5055893;28;45347;-57
2022/02/03 10:24:39;;;;;;;;;2.75;2.75;;;;;20.00;36.93;101354.22;5056383;28;45382;-57
2022/02/03 10:27:10;;;;;;;;;3.50;3.50;;;;;20.01;36.73;101366.44;5076745;27;45250;-57
2022/02/03 10:29:42;;;;;;;;;3.00;3.00;;;;;20.01;36.49;101355.91;5076300;27;45406;-57
2022/02/03 10:32:11;;;;;;;;;4.75;4.00;;;;;20.01;36.67;101355.91;5076090;27;45528;-56
2022/02/03 10:34:41;;;;;;;;;4.25;3.25;;;;;20.00;36.74;101354.22;5076509;27;45382;-51
2022/02/03 10:37:26;;;;;;;;;4.00;3.75;;;;;20.03;36.60;101353.22;5076545;28;45781;-53
2022/02/03 10:54:02;;;;;;;;;3.00;3.00;;;;;20.00;36.64;101369.13;5066901;27;45806;-57
2022/02/03 10:56:53;;;;;;;;;3.00;3.00;;;;;19.99;36.53;101363.03;5076080;27;45386;-57
2022/02/03 11:06:55;;;;;;;;;4.00;4.00;;;;;19.96;36.49;101336.84;5078833;27;45284;-58
2022/02/03 11:09:32;;;;;;;;;3.00;3.00;;;;;19.95;36.11;101329.03;5079522;27;45493;-58
2022/02/03 11:11:59;;;;;;;;;5.00;3.00;;;;;19.95;36.30;101314.09;5077784;28;47506;-57
2022/02/03 11:14:25;;;;;;;;;3.75;3.75;;;;;19.95;36.17;101311.47;5079278;27;45710;-58
2022/02/03 11:16:51;;;;;;;;;4.00;4.00;;;;;19.96;36.45;101314.94;5077974;27;45553;-57
2022/02/03 11:19:20;;;;;;;;;3.00;3.00;;;;;19.93;36.49;101301.03;5079498;27;45231;-57
2022/02/03 11:21:50;;;;;;;;;3.75;3.75;;;;;19.95;36.32;101297.47;5078975;27;45485;-57
2022/02/03 11:24:26;;;;;;;;;3.00;3.00;;;;;19.95;36.09;101295.69;5079239;27;45196;-58
2022/02/03 12:13:51;;;;;;;;;3.00;3.00;;;;;19.86;35.69;101254.00;5078454;27;45544;-58
2022/02/03 12:24:37;;;;;;;;;3.00;3.00;;;;;19.88;36.22;101245.13;5078766;27;45533;-57
2022/02/03 12:27:26;;;;;;;;;3.50;3.50;;;;;19.88;35.68;101241.66;5077914;27;45467;-57
2022/02/03 12:42:51;;;;;;;;;3.50;3.50;;;;;19.87;35.71;101217.09;5078250;27;45456;-53
2022/02/03 12:45:37;;;;;;;;;4.75;4.00;;;;;19.86;35.63;101225.09;5076706;28;45345;-54
2022/02/03 12:48:06;;;;;;;;;6.00;3.25;;;;;19.88;35.80;101228.50;5077397;27;46167;-56
2022/02/03 12:50:38;;;;;;;;;3.00;3.00;;;;;19.88;36.05;101231.97;5077776;27;45937;-57
2022/02/03 12:53:05;;;;;;;;;3.75;3.75;;;;;19.86;35.47;101217.19;5077890;27;45245;-55
2022/02/03 12:55:35;;;;;;;;;4.00;4.00;;;;;19.87;36.14;101211.84;5077825;27;45603;-57
2022/02/03 12:58:10;;;;;;;;;4.00;4.00;;;;;19.86;35.67;101207.50;5077563;28;46268;-51
2022/02/03 13:00:46;;;;;;;;;4.00;4.00;;;;;19.88;35.89;101202.19;5077420;28;45299;-54
2022/02/03 13:03:15;;;;;;;;;4.00;4.00;;;;;19.88;35.60;101197.78;5077979;27;45302;-52
2022/02/03 13:05:51;;;;;;;;;4.25;4.25;;;;;19.88;35.78;101202.19;5078046;27;45546;-59
2022/02/03 13:08:16;;;;;;;;;5.25;4.50;;;;;19.86;35.90;101196.16;5077280;27;46606;-51
2022/02/03 13:10:41;;;;;;;;;3.25;3.25;;;;;19.87;36.01;101195.22;5077771;27;45333;-48
2022/02/03 13:13:15;;;;;;;;;4.50;4.50;;;;;19.88;35.42;101202.19;5077230;27;45848;-53
2022/02/03 13:15:43;;;;;;;;;5.75;5.75;;;;;19.87;35.93;101200.50;5077887;27;45474;-54
2022/02/03 13:18:18;;;;;;;;;5.00;4.00;;;;;19.85;35.76;101207.56;5077046;27;45609;-54
2022/02/03 13:20:54;;;;;;;;;5.00;5.00;;;;;19.85;35.61;101207.56;5077377;27;45391;-52
2022/02/03 13:23:24;;;;;;;;;9.25;6.00;;;;;19.83;35.77;101201.50;5075851;27;45355;-54
2022/02/03 13:26:09;;;;;;;;;5.00;5.00;;;;;19.84;35.49;101195.31;5077192;27;45358;-54
2022/02/03 13:28:42;;;;;;;;;6.50;5.50;;;;;19.81;35.49;101196.34;5076411;28;47392;-56
2022/02/03 13:33:49;;;;;;;;;9.00;6.00;;;;;19.81;35.57;101184.94;5077323;27;45366;-51
2022/02/03 13:36:24;;;;;;;;;7.50;6.75;;;;;19.81;35.54;101190.19;5077323;27;45448;-53
2022/02/03 13:39:07;;;;;;;;;4.25;4.00;;;;;19.80;35.84;101196.38;5076986;27;45811;-55
2022/02/03 13:41:37;;;;;;;;;6.75;6.00;;;;;19.78;35.49;101186.81;5075593;27;45803;-52
2022/02/03 13:44:05;;;;;;;;;4.75;4.75;;;;;19.78;35.65;101181.56;5076921;27;45382;-58
2022/02/03 13:46:33;;;;;;;;;5.25;5.00;;;;;19.78;36.31;101180.69;5077081;27;45418;-53
2022/02/03 13:48:59;;;;;;;;;4.00;4.00;;;;;19.78;35.76;101176.28;5076768;27;46391;-56
2022/02/03 13:51:30;;;;;;;;;7.75;5.75;;;;;19.81;36.36;101184.94;5076768;27;45334;-55
2022/02/03 13:54:26;;;;;;;;;6.50;5.50;;;;;19.81;36.09;101179.69;5076878;27;45322;-54
2022/02/03 14:21:00;;;;;;;;;6.00;6.00;;;;;19.90;36.08;101164.38;5076370;27;45351;-55
2022/02/03 14:28:57;;;;;;;;;4.25;4.00;;;;;19.91;36.18;101158.19;5076658;28;45208;-57
2022/02/03 14:31:22;;;;;;;;;4.75;4.75;;;;;19.89;36.65;101152.13;5076171;27;45771;-55
2022/02/03 14:33:48;;;;;;;;;6.00;6.00;;;;;19.92;36.38;101153.75;5076204;27;45756;-51
2022/02/03 14:36:17;;;;;;;;;7.75;6.25;;;;;19.92;36.51;101153.75;5076593;27;45296;-57
2022/02/03 14:41:23;;;;;;;;;7.00;7.00;;;;;19.92;36.10;101145.88;5078334;27;45933;-56
2022/02/03 14:43:51;;;;;;;;;7.50;6.75;;;;;19.89;35.91;101146.88;5079724;27;45964;-56
2022/02/03 14:46:17;;;;;;;;;6.75;6.00;;;;;19.89;36.46;101138.97;5078842;27;45388;-58
2022/02/03 14:48:44;;;;;;;;;6.25;6.25;;;;;19.88;36.13;101129.38;5079898;27;45435;-58
2022/02/03 14:51:14;;;;;;;;;5.75;5.75;;;;;19.88;35.93;101132.00;5079522;27;46461;-59
2022/02/03 14:58:59;;;;;;;;;11.25;7.00;;;;;19.86;36.02;101136.47;5079773;28;45678;-60
2022/02/03 15:01:25;;;;;;;;;5.75;5.75;;;;;19.86;36.06;101136.47;5079184;27;46693;-56
2022/02/03 15:03:54;;;;;;;;;7.75;5.00;;;;;19.86;36.17;101133.84;5079322;27;45468;-56
2022/02/03 15:06:23;;;;;;;;;7.75;5.00;;;;;19.86;36.46;101135.66;5079644;27;45340;-53
2022/02/03 15:10:15;;;;;;;;;6.75;4.50;;;;;19.83;36.10;101120.84;5079627;27;45219;-57
2022/02/03 15:14:08;;;;;;;;;5.00;5.00;;;;;19.85;36.37;101134.75;5079105;27;45345;-58
2022/02/03 15:16:34;;;;;;;;;2.50;2.50;;;;;19.84;36.11;101132.19;5077950;28;45446;-57
2022/02/03 15:18:59;;;;;;;;;5.75;5.75;;;;;19.85;36.61;101133.91;5079406;27;45207;-56
2022/02/03 15:21:24;;;;;;;;;9.00;5.50;;;;;19.85;36.53;101131.28;5078886;27;49578;-58
2022/02/03 15:23:50;;;;;;;;;5.25;5.00;;;;;19.84;36.40;101132.19;5079287;27;45452;-56
2022/02/03 15:26:15;;;;;;;;;7.25;5.50;;;;;19.85;36.23;101134.75;5079598;27;45284;-59
2022/02/03 15:28:42;;;;;;;;;6.25;6.25;;;;;19.84;36.41;101138.34;5079309;27;45578;-57
2022/02/03 15:31:07;;;;;;;;;4.50;4.50;;;;;19.84;36.48;101137.47;5078956;27;46548;-59
2022/02/03 15:33:32;;;;;;;;;6.25;5.25;;;;;19.84;36.51;101137.47;5078665;27;45316;-58
2022/02/03 15:36:02;;;;;;;;;3.50;3.50;;;;;19.82;36.69;101126.16;5078875;27;45315;-58
2022/02/03 15:38:32;;;;;;;;;6.50;6.00;;;;;19.82;36.67;101131.41;5079078;27;45466;-58
2022/02/03 15:41:01;;;;;;;;;7.50;5.25;;;;;19.82;36.79;101132.28;5072995;28;46092;-58
2022/02/03 15:43:30;;;;;;;;;6.25;5.00;;;;;19.82;36.75;101127.03;5071582;28;45402;-58
2022/02/03 15:46:00;;;;;;;;;4.00;4.00;;;;;19.82;36.48;101132.28;5078101;27;45859;-56
2022/02/03 15:48:53;;;;;;;;;5.00;5.00;;;;;19.82;36.40;101134.91;5078833;27;45431;-59
2022/02/03 15:56:51;;;;;;;;;5.00;5.00;;;;;19.81;36.64;101133.22;5078791;27;45432;-57
2022/02/03 16:17:57;;;;;;;;;4.75;4.75;;;;;19.78;36.99;101117.56;5078398;27;45370;-57
2022/02/03 16:20:28;;;;;;;;;7.00;3.00;;;;;19.81;37.34;101116.56;5078838;27;45942;-51
2022/02/03 16:23:25;;;;;;;;;5.75;5.00;;;;;19.83;36.81;101127.88;5078302;28;45510;-56
2022/02/03 16:52:53;;;;;;;;;6.00;4.00;;;;;20.41;36.95;101128.59;5078371;27;45432;-58
2022/02/03 16:55:22;;;;;;;;;4.50;4.00;;;;;20.45;37.13;101132.81;5077688;27;45438;-59
2022/02/03 16:57:50;;;;;;;;;6.25;5.25;;;;;20.49;37.27;101139.59;5077632;27;45354;-59
2022/02/03 17:00:17;;;;;;;;;3.00;3.00;;;;;20.53;36.75;101138.53;5077814;27;45468;-60
2022/02/03 17:02:43;;;;;;;;;4.00;4.00;;;;;20.57;37.20;101139.22;5077150;27;45329;-54
2022/02/03 17:05:09;;;;;;;;;4.00;4.00;;;;;20.59;37.11;101138.19;5077589;27;45277;-57
2022/02/03 17:07:35;;;;;;;;;5.50;5.50;;;;;20.63;36.93;101137.13;5076014;28;45350;-57
2022/02/03 17:10:01;;;;;;;;;5.75;5.00;;;;;20.64;36.58;101137.97;5077665;27;45342;-59
2022/02/03 17:12:26;;;;;;;;;6.50;5.00;;;;;20.65;37.04;101140.53;5077560;27;45508;-59
2022/02/03 17:14:52;;;;;;;;;6.50;4.25;;;;;20.67;36.48;101136.03;5077601;27;46627;-59
2022/02/03 17:17:20;;;;;;;;;5.25;5.25;;;;;20.67;36.68;101135.19;5076008;27;45783;-59
2022/02/03 17:19:47;;;;;;;;;6.50;4.00;;;;;20.69;36.91;101133.31;5077535;27;45341;-62
2022/02/03 17:22:14;;;;;;;;;5.75;5.75;;;;;20.70;36.44;101132.41;5077480;27;45322;-63
2022/02/03 17:24:47;;;;;;;;;7.50;6.25;;;;;20.74;36.82;101138.34;5075841;28;47359;-60
2022/02/03 17:27:27;;;;;;;;;6.75;6.75;;;;;20.74;36.98;101147.13;5077136;27;45343;-62
2022/02/03 17:30:14;;;;;;;;;6.25;5.00;;;;;20.78;37.47;101145.22;5077708;27;45329;-55
2022/02/03 18:10:45;;;;;;;;;6.00;5.00;;;;;20.79;39.52;101153.03;5076442;27;45783;-57
2022/02/03 18:50:43;;;;;;;;;5.50;5.50;;;;;20.77;39.96;101170.69;5079746;27;45875;-56
2022/02/03 18:58:28;;;;;;;;;4.50;4.50;;;;;20.79;39.92;101162.69;5079921;27;45741;-54
2022/02/03 19:01:17;;;;;;;;;2.75;2.75;;;;;20.80;39.89;101159.13;5079324;27;46372;-56
2022/02/03 20:06:00;;;;;;;;;13.75;13.25;;;;;20.70;40.45;101188.56;5078358;28;45552;-59
2022/02/03 20:11:13;;;;;;;;;14.00;13.75;;;;;20.70;40.14;101185.06;5078239;28;45458;-62
2022/02/03 20:13:38;;;;;;;;;14.25;12.50;;;;;20.70;39.89;101188.56;5078462;27;45349;-65
2022/02/03 20:16:05;;;;;;;;;13.00;12.00;;;;;20.70;39.67;101177.19;5078429;27;45286;-60
2022/02/03 20:18:30;;;;;;;;;11.00;9.00;;;;;20.69;39.61;101184.22;5078447;27;45355;-58
2022/02/03 20:20:56;;;;;;;;;7.00;7.00;;;;;20.63;40.05;101176.63;5076804;27;45452;-59
2022/02/03 20:23:23;;;;;;;;;13.00;10.00;;;;;20.68;39.96;101189.56;5076845;27;45548;-63
2022/02/03 20:25:57;;;;;;;;;14.50;11.75;;;;;20.61;39.48;101183.75;5076569;27;46368;-60
2022/02/03 20:28:26;;;;;;;;;15.00;13.25;;;;;20.62;39.89;101182.81;5077932;27;45328;-62
2022/02/03 20:30:52;;;;;;;;;11.75;10.25;;;;;20.61;39.71;101181.13;5078075;28;45339;-64
2022/02/03 20:33:17;;;;;;;;;12.75;12.75;;;;;20.63;39.26;101187.16;5078263;27;45256;-62
2022/02/03 20:35:43;;;;;;;;;11.00;10.50;;;;;20.59;39.68;101182.97;5077814;27;46208;-58
2022/02/03 20:38:09;;;;;;;;;9.50;8.25;;;;;20.62;39.98;101193.34;5076531;28;45310;-62
2022/02/03 20:40:35;;;;;;;;;12.25;10.00;;;;;20.61;39.45;101181.13;5078027;27;45292;-57
2022/02/03 20:43:01;;;;;;;;;9.00;9.00;;;;;20.60;39.28;101187.31;5078424;27;45424;-60
2022/02/03 20:45:26;;;;;;;;;5.25;5.00;;;;;20.59;39.53;101177.69;5077769;27;45349;-57
2022/02/03 20:47:53;;;;;;;;;9.00;9.00;;;;;20.60;39.92;101183.84;5077734;27;45473;-52
2022/02/03 20:50:20;;;;;;;;;11.25;9.50;;;;;20.60;39.38;101184.69;5077875;27;45300;-56
2022/02/03 20:52:47;;;;;;;;;11.25;8.25;;;;;20.55;39.56;101178.81;5078140;27;45741;-60
2022/02/03 20:55:12;;;;;;;;;10.00;10.00;;;;;20.59;39.78;101187.41;5076284;27;48050;-56
2022/02/03 20:57:38;;;;;;;;;10.75;10.00;;;;;20.59;39.73;101190.88;5077608;27;45350;-54
2022/02/03 21:00:19;;;;;;;;;9.25;9.25;;;;;20.58;39.41;101185.69;5078034;27;45299;-60
2022/02/03 21:05:15;;;;;;;;;12.25;10.75;;;;;20.52;39.33;101181.59;5076544;27;45430;-56
2022/02/03 21:07:43;;;;;;;;;8.25;6.50;;;;;20.57;39.68;101189.25;5077370;28;45829;-62
2022/02/03 21:10:12;;;;;;;;;9.50;9.50;;;;;20.52;39.37;101184.22;5077490;27;45378;-57
2022/02/03 21:12:38;;;;;;;;;10.25;10.00;;;;;20.55;39.60;101191.97;5077515;27;45511;-56
2022/02/03 21:15:06;;;;;;;;;7.00;6.50;;;;;20.52;39.71;101182.41;5077698;27;45359;-56
2022/02/03 21:17:32;;;;;;;;;14.50;10.00;;;;;20.54;39.48;101182.38;5077637;27;45914;-56
2022/02/03 21:20:20;;;;;;;;;9.25;8.50;;;;;20.52;39.83;101187.69;5077567;27;45420;-56
2022/02/03 21:22:45;;;;;;;;;8.00;8.00;;;;;20.53;39.68;101188.56;5077711;27;45211;-55
2022/02/03 21:27:48;;;;;;;;;8.50;8.00;;;;;20.54;39.36;101190.25;5077184;27;45741;-55
2022/02/03 21:30:17;;;;;;;;;8.00;8.00;;;;;20.50;39.19;101194.84;5077371;27;45296;-56
2022/02/03 21:32:42;;;;;;;;;12.00;7.75;;;;;20.52;39.61;101192.94;5075998;27;45575;-59
2022/02/03 21:35:10;;;;;;;;;7.00;7.00;;;;;20.52;39.57;101190.31;5075841;27;47198;-62
2022/02/03 21:37:35;;;;;;;;;9.25;6.00;;;;;20.52;39.36;101195.59;5077496;27;45350;-57
2022/02/03 21:40:02;;;;;;;;;11.00;8.00;;;;;20.52;39.42;101192.94;5077283;27;45301;-63
2022/02/03 21:42:27;;;;;;;;;7.00;6.50;;;;;20.50;39.49;101199.22;5077057;27;45293;-62
2022/02/03 21:44:52;;;;;;;;;6.50;6.00;;;;;20.51;39.53;101193.03;5075558;27;45519;-56
2022/02/03 21:47:18;;;;;;;;;8.00;8.00;;;;;20.50;39.30;101204.50;5076940;27;45442;-58
2022/02/03 21:49:44;;;;;;;;;6.75;5.75;;;;;20.45;39.56;101193.34;5075392;28;45783;-69
2022/02/03 21:52:18;;;;;;;;;8.50;6.25;;;;;20.46;39.31;101193.28;5077225;28;45341;-57
2022/02/03 21:54:43;;;;;;;;;7.25;6.50;;;;;20.44;39.47;101199.56;5076702;27;46177;-57
2022/02/03 21:57:10;;;;;;;;;8.00;6.75;;;;;20.43;39.50;101196.03;5077006;27;45250;-60
2022/02/03 21:59:35;;;;;;;;;6.25;5.00;;;;;20.42;39.61;101201.41;5077373;27;45491;-60
2022/02/03 22:02:08;;;;;;;;;8.25;8.25;;;;;20.40;39.29;101198.81;5077175;27;45332;-60
2022/02/03 22:04:34;;;;;;;;;9.00;7.00;;;;;20.39;39.59;101194.50;5076780;27;45343;-59
2022/02/03 22:07:00;;;;;;;;;6.75;6.75;;;;;20.37;39.16;101199.84;5076626;27;45842;-57
2022/02/03 22:09:25;;;;;;;;;9.00;7.00;;;;;20.35;39.29;101195.56;5076745;27;45641;-60
2022/02/03 22:11:51;;;;;;;;;6.25;5.00;;;;;20.37;39.17;101201.63;5075557;27;45485;-59
2022/02/03 22:14:16;;;;;;;;;8.25;6.00;;;;;20.37;38.91;101205.09;5076437;27;45485;-56
2022/02/03 22:16:42;;;;;;;;;7.00;6.75;;;;;20.32;39.67;101215.00;5075191;27;45688;-60
2022/02/03 22:19:07;;;;;;;;;5.50;5.00;;;;;20.33;39.20;101208.81;5076959;27;45346;-57
2022/02/03 22:21:50;;;;;;;;;6.25;5.75;;;;;20.33;39.33;101213.22;5075460;28;45572;-61
2022/02/03 22:27:13;;;;;;;;;7.00;5.50;;;;;20.28;39.51;101212.59;5076406;27;45353;-56
2022/02/03 22:42:04;;;;;;;;;6.50;5.00;;;;;20.26;38.89;101212.66;5076378;28;45240;-59
2022/02/03 22:46:24;;;;;;;;;5.25;5.25;;;;;20.24;39.03;101209.25;5076108;28;45733;-64
2022/02/03 22:48:50;;;;;;;;;5.00;5.00;;;;;20.23;39.29;101210.16;5075953;27;45174;-61
2022/02/03 22:51:15;;;;;;;;;6.75;6.00;;;;;20.22;39.46;101211.13;5076309;27;45498;-60
2022/02/03 22:53:42;;;;;;;;;2.75;2.00;;;;;20.21;38.90;101214.69;5075371;28;45353;-59
2022/02/03 22:56:09;;;;;;;;;6.00;4.50;;;;;20.20;39.07;101207.72;5076325;27;47482;-62
2022/02/03 23:01:05;;;;;;;;;4.00;4.00;;;;;20.20;38.78;101215.59;5076798;28;45527;-65
2022/02/03 23:03:32;;;;;;;;;5.50;5.00;;;;;20.17;39.28;101211.34;5079869;28;45288;-71
2022/02/03 23:05:58;;;;;;;;;5.00;5.00;;;;;20.19;39.40;101219.16;5079320;27;45654;-67
2022/02/03 23:08:38;;;;;;;;;5.25;5.25;;;;;20.19;39.13;101219.16;5078099;27;45787;-60